Time;durP1;ratioP1;P1;durP2;ratioP2;P2;SDS_P1;SDS_P2;PMS_P1;PMS_P2;Temp;Humidity;BMP_temperature;BMP_pressure;BME280_temperature;BME280_humidity;BME280_pressure;Samples;Min_cycle;Max_cycle;Signal;HPM_P1;HPM_P2
2021/07/03 00:00:50;;;;;;;0.05;0.05;;;;;;;22.16;58.75;98453.94;5091960;28;20055;-74
2021/07/03 00:03:16;;;;;;;0.47;0.47;;;;;;;22.08;58.85;98446.81;5092069;28;20133;-74
2021/07/03 00:05:41;;;;;;;0.00;0.00;;;;;;;22.07;58.96;98453.44;5092057;28;20024;-74
2021/07/03 00:08:06;;;;;;;0.10;0.10;;;;;;;22.01;58.87;98449.47;5091919;28;20025;-73
2021/07/03 00:10:32;;;;;;;0.10;0.10;;;;;;;21.96;58.57;98444.31;5091999;28;20028;-73
2021/07/03 00:12:57;;;;;;;0.10;0.10;;;;;;;21.91;58.62;98454.38;5091855;28;20051;-73
2021/07/03 00:15:23;;;;;;;0.20;0.20;;;;;;;21.85;58.82;98444.16;5092066;28;20032;-74
2021/07/03 00:17:51;;;;;;;0.10;0.10;;;;;;;21.80;59.10;98441.75;5091743;28;20051;-74
2021/07/03 00:20:16;;;;;;;0.20;0.20;;;;;;;21.72;59.27;98443.59;5091910;28;20034;-74
2021/07/03 00:22:42;;;;;;;0.10;0.10;;;;;;;21.67;59.53;98441.19;5091725;28;20107;-74
2021/07/03 00:25:09;;;;;;;0.20;0.20;;;;;;;21.57;59.92;98440.66;5091310;28;20051;-74
2021/07/03 00:27:34;;;;;;;0.10;0.10;;;;;;;21.51;60.09;98450.25;5091847;28;20036;-74
2021/07/03 00:29:59;;;;;;;0.10;0.10;;;;;;;21.44;60.44;98453.63;5091557;28;20392;-74
2021/07/03 00:32:25;;;;;;;1.20;1.10;;;;;;;21.39;60.86;98456.66;5091620;28;20016;-74
2021/07/03 00:34:50;;;;;;;0.10;0.10;;;;;;;21.30;61.57;98447.16;5091054;28;20115;-74
2021/07/03 00:37:16;;;;;;;0.30;0.30;;;;;;;21.23;61.40;98456.75;5091635;28;20024;-74
2021/07/03 00:39:42;;;;;;;0.63;0.50;;;;;;;21.23;61.42;98464.91;5091282;28;20032;-74
2021/07/03 00:42:08;;;;;;;0.10;0.10;;;;;;;21.19;61.01;98461.38;5091320;28;20085;-74
2021/07/03 00:44:36;;;;;;;0.10;0.10;;;;;;;21.20;61.27;98465.66;5091165;28;20024;-74
2021/07/03 00:47:03;;;;;;;0.35;0.35;;;;;;;21.19;60.67;98464.09;5091017;28;20397;-74
2021/07/03 00:49:29;;;;;;;0.20;0.20;;;;;;;21.16;60.43;98462.06;5091394;28;20115;-74
2021/07/03 00:51:54;;;;;;;0.17;0.17;;;;;;;21.14;60.37;98460.88;5090839;28;20561;-74
2021/07/03 00:54:21;;;;;;;0.20;0.20;;;;;;;21.09;60.40;98454.59;5091071;28;20024;-74
2021/07/03 00:57:01;;;;;;;0.10;0.10;;;;;;;21.11;60.09;98454.22;5091352;28;20026;-74
2021/07/03 00:59:38;;;;;;;0.10;0.10;;;;;;;21.11;59.91;98454.22;5091319;28;20028;-74
2021/07/03 01:02:06;;;;;;;0.00;0.00;;;;;;;21.09;59.94;98456.50;5090783;28;20039;-74
2021/07/03 01:04:32;;;;;;;0.17;0.17;;;;;;;21.07;59.32;98447.94;5073174;28;20395;-74
2021/07/03 01:06:57;;;;;;;0.15;0.15;;;;;;;21.06;58.63;98449.09;5090627;28;20032;-73
2021/07/03 01:09:23;;;;;;;0.35;0.35;;;;;;;21.03;58.08;98436.19;5091163;28;20109;-73
2021/07/03 01:11:50;;;;;;;0.20;0.20;;;;;;;21.08;58.25;98442.13;5091135;28;20099;-74
2021/07/03 01:14:17;;;;;;;0.20;0.20;;;;;;;21.09;57.75;98437.47;5091137;28;20051;-74
2021/07/03 01:16:46;;;;;;;0.10;0.10;;;;;;;21.10;57.77;98447.22;5090656;28;20047;-74
2021/07/03 01:19:12;;;;;;;0.10;0.10;;;;;;;21.14;57.70;98444.56;5090829;28;20024;-74
2021/07/03 01:21:37;;;;;;;0.10;0.10;;;;;;;21.15;57.54;98446.13;5090942;28;20026;-74
2021/07/03 01:24:03;;;;;;;0.10;0.10;;;;;;;21.13;57.59;98435.63;5091011;28;20055;-74
2021/07/03 01:26:47;;;;;;;0.10;0.10;;;;;;;21.15;57.60;98437.97;5091002;28;20110;-74
2021/07/03 01:29:13;;;;;;;0.10;0.10;;;;;;;21.10;57.18;98436.34;5090761;28;20023;-74
2021/07/03 01:31:43;;;;;;;0.10;0.10;;;;;;;21.10;57.07;98439.06;5090479;28;20459;-74
2021/07/03 01:34:09;;;;;;;0.10;0.10;;;;;;;21.07;57.10;98432.41;5090427;28;20138;-74
2021/07/03 01:36:37;;;;;;;0.10;0.10;;;;;;;21.09;56.96;98441.00;5090871;28;20028;-74
2021/07/03 01:39:07;;;;;;;0.35;0.35;;;;;;;21.13;56.70;98451.94;5090624;28;20043;-74
2021/07/03 01:41:34;;;;;;;0.10;0.10;;;;;;;21.10;56.79;98449.94;5090590;28;20483;-74
2021/07/03 01:43:59;;;;;;;0.13;0.13;;;;;;;21.10;56.32;98448.00;5090510;28;20636;-74
2021/07/03 01:46:25;;;;;;;0.00;0.00;;;;;;;21.11;56.35;98443.34;5090837;28;20028;-74
2021/07/03 01:48:50;;;;;;;0.20;0.20;;;;;;;21.10;56.17;98449.94;5090776;28;20102;-74
2021/07/03 01:51:16;;;;;;;0.00;0.00;;;;;;;21.10;56.04;98448.00;5090547;28;20027;-74
2021/07/03 01:53:42;;;;;;;0.15;0.15;;;;;;;21.07;55.83;98439.78;5090770;28;20052;-74
2021/07/03 01:56:08;;;;;;;0.30;0.30;;;;;;;21.06;55.75;98447.13;5090794;28;20493;-74
2021/07/03 01:58:35;;;;;;;0.15;0.15;;;;;;;21.04;55.53;98446.72;5091712;28;20440;-74
2021/07/03 02:01:03;;;;;;;0.00;0.00;;;;;;;21.05;55.24;98450.22;5094405;28;20032;-74
2021/07/03 02:03:28;;;;;;;0.10;0.10;;;;;;;21.03;55.02;98442.44;5094166;28;20024;-74
2021/07/03 02:05:54;;;;;;;0.10;0.10;;;;;;;21.05;54.75;98452.94;5094036;28;20026;-74
2021/07/03 02:08:20;;;;;;;0.20;0.20;;;;;;;21.04;54.80;98460.31;5094462;28;20055;-74
2021/07/03 02:10:46;;;;;;;2.90;0.73;;;;;;;21.04;54.61;98452.16;5094136;28;20031;-74
2021/07/03 02:13:12;;;;;;;0.20;0.20;;;;;;;21.04;54.54;98459.53;5094172;28;20024;-74
2021/07/03 02:15:38;;;;;;;0.38;0.38;;;;;;;21.04;54.42;98456.81;5094248;28;20028;-74
2021/07/03 02:18:04;;;;;;;0.10;0.10;;;;;;;21.01;54.21;98460.25;5094076;28;20380;-74
2021/07/03 02:20:31;;;;;;;0.03;0.03;;;;;;;21.00;53.88;98466.84;5094018;28;20032;-74
2021/07/03 02:22:57;;;;;;;0.10;0.10;;;;;;;21.01;53.88;98476.56;5093762;28;20483;-74
2021/07/03 02:25:22;;;;;;;0.10;0.10;;;;;;;21.02;53.30;98459.88;5093844;28;20055;-74
2021/07/03 02:27:49;;;;;;;0.00;0.00;;;;;;;21.00;53.24;98470.34;5094148;28;20020;-74
2021/07/03 02:30:16;;;;;;;0.30;0.30;;;;;;;21.01;52.93;98471.91;5093783;28;20028;-74
2021/07/03 02:32:43;;;;;;;0.10;0.10;;;;;;;21.01;53.09;98480.06;5094150;28;20395;-74
2021/07/03 02:35:10;;;;;;;0.10;0.10;;;;;;;21.00;52.96;98480.44;5093671;28;20185;-74
2021/07/03 02:37:36;;;;;;;0.10;0.10;;;;;;;21.01;52.96;98484.72;5093951;28;20059;-74
2021/07/03 02:40:04;;;;;;;0.25;0.25;;;;;;;21.01;52.78;98484.72;5093609;28;20467;-75
2021/07/03 02:42:30;;;;;;;;;;;;;;;21.03;52.44;98485.94;5094116;28;20024;-75
2021/07/03 02:44:55;;;;;;;0.20;0.20;;;;;;;21.03;52.40;98483.22;5093467;28;19919;-75
2021/07/03 02:47:21;;;;;;;0.15;0.15;;;;;;;21.05;52.48;98488.28;5093439;28;20024;-75
2021/07/03 02:49:46;;;;;;;0.10;0.10;;;;;;;21.05;52.25;98486.34;5093386;28;20448;-75
2021/07/03 02:52:11;;;;;;;0.10;0.10;;;;;;;21.07;52.53;98481.34;5093128;28;20032;-75
2021/07/03 02:54:37;;;;;;;0.50;0.50;;;;;;;21.08;52.29;98488.34;5093515;28;20028;-75
2021/07/03 02:57:02;;;;;;;0.10;0.10;;;;;;;21.09;52.36;98480.97;5093270;28;20028;-75
2021/07/03 02:59:28;;;;;;;0.10;0.10;;;;;;;21.13;52.08;98497.34;5093435;28;20372;-74
2021/07/03 03:01:54;;;;;;;0.05;0.05;;;;;;;21.14;52.11;98488.84;5093139;28;20028;-74
2021/07/03 03:04:20;;;;;;;0.10;0.10;;;;;;;21.15;52.02;98486.91;5093017;28;20020;-74
2021/07/03 03:06:46;;;;;;;0.10;0.10;;;;;;;21.17;52.00;98493.56;5093376;28;20028;-74
2021/07/03 03:09:12;;;;;;;0.22;0.20;;;;;;;21.18;51.90;98488.88;5092986;28;20559;-74
2021/07/03 03:11:37;;;;;;;0.10;0.10;;;;;;;21.15;51.92;98492.34;5093532;28;20054;-74
2021/07/03 03:14:03;;;;;;;0.10;0.10;;;;;;;21.17;52.18;98501.72;5092973;28;20394;-74
2021/07/03 03:16:29;;;;;;;0.10;0.10;;;;;;;21.18;52.15;98492.41;5093153;28;20032;-74
2021/07/03 03:18:55;;;;;;;0.10;0.10;;;;;;;21.40;51.94;98506.41;5093030;28;20020;-74
2021/07/03 03:21:21;;;;;;;0.10;0.10;;;;;;;21.51;51.73;98491.03;5092764;28;20094;-74
2021/07/03 03:23:47;;;;;;;0.10;0.10;;;;;;;21.76;51.79;98504.31;5092949;28;20036;-74
2021/07/03 03:26:12;;;;;;;0.10;0.10;;;;;;;21.97;51.84;98501.16;5092724;28;20051;-74
2021/07/03 03:28:38;;;;;;;0.32;0.32;;;;;;;22.25;51.46;98493.75;5092907;28;20024;-74
2021/07/03 03:31:04;;;;;;;0.00;0.00;;;;;;;22.59;50.98;98491.88;5092511;28;20495;-74
2021/07/03 03:33:30;;;;;;;0.08;0.05;;;;;;;23.02;49.15;98497.06;5093082;28;20110;-74
2021/07/03 03:35:55;;;;;;;0.40;0.40;;;;;;;23.18;48.65;98496.88;5092803;28;20542;-74
2021/07/03 03:38:20;;;;;;;0.20;0.20;;;;;;;23.25;48.33;98496.16;5092475;28;20028;-74
2021/07/03 03:40:46;;;;;;;0.08;0.08;;;;;;;23.41;47.65;98507.63;5092675;28;20117;-74
2021/07/03 03:43:11;;;;;;;0.10;0.10;;;;;;;23.46;47.28;98506.47;5074126;28;20042;-75
2021/07/03 03:45:37;;;;;;;0.10;0.10;;;;;;;23.43;46.60;98496.34;5092283;28;20659;-74
2021/07/03 03:48:04;;;;;;;0.10;0.10;;;;;;;23.41;46.46;98502.19;5092215;28;20224;-74
2021/07/03 03:50:30;;;;;;;0.10;0.10;;;;;;;23.69;46.90;98492.66;5092172;28;20491;-74
2021/07/03 03:52:56;;;;;;;0.10;0.10;;;;;;;24.12;45.51;98493.00;5092404;28;20020;-74
2021/07/03 03:55:21;;;;;;;0.35;0.30;;;;;;;24.40;45.12;98488.88;5091840;28;20111;-74
2021/07/03 03:57:47;;;;;;;0.10;0.10;;;;;;;24.54;44.20;98492.84;5092095;28;20028;-74
2021/07/03 04:00:13;;;;;;;0.00;0.00;;;;;;;24.54;44.29;98490.88;5092080;28;20028;-74
2021/07/03 04:02:39;;;;;;;0.17;0.17;;;;;;;24.52;44.14;98490.47;5092237;28;20533;-74
2021/07/03 04:05:05;;;;;;;0.00;0.00;;;;;;;24.59;43.79;98492.47;5091909;28;20209;-74
2021/07/03 04:07:31;;;;;;;0.57;0.57;;;;;;;24.72;43.72;98485.50;5092196;28;20133;-74
2021/07/03 04:09:56;;;;;;;0.15;0.15;;;;;;;25.13;43.40;98475.47;5092166;28;20501;-75
2021/07/03 04:12:22;;;;;;;0.10;0.10;;;;;;;25.50;41.23;98474.34;5091774;28;20074;-75
2021/07/03 04:14:48;;;;;;;0.10;0.10;;;;;;;25.80;41.15;98482.19;5092036;28;20032;-75
2021/07/03 04:17:14;;;;;;;0.40;0.40;;;;;;;26.21;40.28;98479.00;5091376;28;20020;-75
2021/07/03 04:19:39;;;;;;;0.25;0.25;;;;;;;26.52;40.06;98475.78;5091609;28;20024;-75
2021/07/03 04:22:05;;;;;;;0.20;0.20;;;;;;;26.92;38.86;98484.63;5091148;28;20049;-75
2021/07/03 04:24:30;;;;;;;0.15;0.15;;;;;;;27.23;38.16;98473.09;5091517;28;20024;-75
2021/07/03 04:26:56;;;;;;;0.00;0.00;;;;;;;27.54;37.13;98478.78;5091863;28;20081;-75
2021/07/03 04:29:21;;;;;;;0.10;0.10;;;;;;;27.88;36.76;98484.38;5091214;28;20035;-75
2021/07/03 04:31:47;;;;;;;0.08;0.08;;;;;;;28.21;36.46;98473.88;5091585;28;20372;-75
2021/07/03 04:34:13;;;;;;;0.20;0.20;;;;;;;28.54;35.97;98474.28;5091123;28;20035;-75
2021/07/03 04:36:38;;;;;;;0.00;0.00;;;;;;;28.73;35.63;98483.91;5091592;28;20035;-75
2021/07/03 04:39:04;;;;;;;0.10;0.10;;;;;;;29.13;34.57;98486.09;5091362;28;20036;-75
2021/07/03 04:41:29;;;;;;;0.00;0.00;;;;;;;29.38;34.29;98484.97;5091563;28;20138;-75
2021/07/03 04:43:55;;;;;;;0.00;0.00;;;;;;;29.61;34.22;98486.97;5091447;28;20031;-75
2021/07/03 04:46:21;;;;;;;0.00;0.00;;;;;;;29.94;33.68;98494.72;5091261;28;20031;-75
2021/07/03 04:48:46;;;;;;;0.00;0.00;;;;;;;30.29;33.40;98501.53;5091406;28;20050;-75
2021/07/03 04:51:12;;;;;;;0.00;0.00;;;;;;;30.63;32.77;98497.00;5091180;28;20024;-75
2021/07/03 04:53:37;;;;;;;0.00;0.00;;;;;;;30.90;32.06;98498.81;5090992;28;20032;-75
2021/07/03 04:56:03;;;;;;;0.00;0.00;;;;;;;31.11;31.11;98501.09;5091030;28;20020;-75
2021/07/03 04:58:28;;;;;;;0.00;0.00;;;;;;;31.29;30.62;98514.50;5090982;28;20032;-75
2021/07/03 05:00:53;;;;;;;0.00;0.00;;;;;;;31.36;30.75;98510.00;5091177;28;20030;-75
2021/07/03 05:03:19;;;;;;;0.03;0.00;;;;;;;31.38;30.60;98502.09;5090834;28;20020;-75
2021/07/03 05:05:44;;;;;;;0.00;0.00;;;;;;;31.42;30.67;98500.78;5091126;28;20020;-75
2021/07/03 05:08:10;;;;;;;0.00;0.00;;;;;;;31.60;30.40;98494.03;5090796;28;20404;-75
2021/07/03 05:10:35;;;;;;;0.05;0.05;;;;;;;31.66;29.61;98499.88;5090642;28;20394;-75
2021/07/03 05:13:01;;;;;;;0.00;0.00;;;;;;;31.56;30.11;98504.44;5090997;28;20028;-75
2021/07/03 05:15:27;;;;;;;0.00;0.00;;;;;;;31.41;30.01;98502.00;5090783;28;20415;-75
2021/07/03 05:17:53;;;;;;;0.00;0.00;;;;;;;31.55;30.38;98511.16;5091096;28;20482;-75
2021/07/03 05:20:18;;;;;;;0.45;0.32;;;;;;;31.67;29.56;98509.72;5090832;28;20032;-75
2021/07/03 05:22:44;;;;;;;0.00;0.00;;;;;;;31.67;30.05;98502.19;5091004;28;20024;-75
2021/07/03 05:25:10;;;;;;;0.10;0.10;;;;;;;31.77;29.25;98501.16;5090409;28;20538;-75
2021/07/03 05:27:36;;;;;;;0.00;0.00;;;;;;;31.86;28.83;98488.69;5091077;28;20032;-75
2021/07/03 05:30:03;;;;;;;0.00;0.00;;;;;;;31.96;28.73;98503.44;5090866;28;20020;-75
2021/07/03 05:32:28;;;;;;;0.00;0.00;;;;;;;32.13;29.07;98495.91;5090255;28;20520;-75
2021/07/03 05:34:53;;;;;;;0.10;0.10;;;;;;;32.14;28.24;98491.91;5093962;28;20024;-75
2021/07/03 05:37:19;;;;;;;0.00;0.00;;;;;;;32.17;28.59;98497.34;5094835;28;20044;-75
2021/07/03 05:39:44;;;;;;;0.00;0.00;;;;;;;32.18;28.32;98487.84;5094981;28;20036;-75
2021/07/03 05:42:10;;;;;;;0.00;0.00;;;;;;;32.38;28.60;98496.00;5094752;28;20032;-75
2021/07/03 05:44:35;;;;;;;0.00;0.00;;;;;;;32.56;28.29;98501.03;5094760;28;20020;-75
2021/07/03 05:47:01;;;;;;;0.00;0.00;;;;;;;32.67;27.82;98489.66;5095125;28;20035;-76
2021/07/03 05:49:26;;;;;;;0.00;0.00;;;;;;;32.69;28.04;98495.53;5094304;28;20483;-75
2021/07/03 05:51:52;;;;;;;0.00;0.00;;;;;;;32.71;28.26;98493.13;5094762;28;20024;-76
2021/07/03 05:54:17;;;;;;;0.10;0.10;;;;;;;32.73;28.04;98496.22;5094488;28;20031;-75
2021/07/03 05:56:43;;;;;;;0.00;0.00;;;;;;;32.69;28.21;98494.75;5094580;28;20467;-75
2021/07/03 05:59:08;;;;;;;0.10;0.10;;;;;;;32.75;27.69;98504.06;5094383;28;20024;-75
2021/07/03 06:01:34;;;;;;;0.00;0.00;;;;;;;32.79;27.11;98488.16;5094640;28;20403;-75
2021/07/03 06:03:59;;;;;;;0.00;0.00;;;;;;;32.88;27.58;98501.34;5094433;28;20020;-75
2021/07/03 06:06:25;;;;;;;0.10;0.10;;;;;;;32.98;27.40;98503.03;5094220;28;20078;-75
2021/07/03 06:08:50;;;;;;;0.52;0.10;;;;;;;32.88;27.00;98496.59;5094414;28;20119;-75
2021/07/03 06:11:16;;;;;;;0.00;0.00;;;;;;;32.92;26.34;98493.72;5093875;28;20498;-75
2021/07/03 06:13:42;;;;;;;0.08;0.08;;;;;;;32.87;26.61;98483.19;5094246;28;20503;-75
2021/07/03 06:16:07;;;;;;;0.10;0.10;;;;;;;32.74;26.97;98488.69;5094261;28;20028;-74
2021/07/03 06:18:33;;;;;;;0.10;0.10;;;;;;;32.43;27.67;98489.16;5094284;28;20483;-75
2021/07/03 06:20:59;;;;;;;0.10;0.10;;;;;;;32.19;27.34;98494.16;5093873;28;20082;-75
2021/07/03 06:23:26;;;;;;;0.00;0.00;;;;;;;32.11;28.00;98490.03;5093801;28;20027;-75
2021/07/03 06:25:51;;;;;;;0.03;0.03;;;;;;;31.91;27.57;98483.41;5094157;28;20384;-75
2021/07/03 06:28:16;;;;;;;0.00;0.00;;;;;;;31.82;27.77;98496.31;5094050;28;20050;-75
2021/07/03 06:30:42;;;;;;;0.00;0.00;;;;;;;31.73;28.33;98497.69;5093626;28;20026;-75
2021/07/03 06:33:07;;;;;;;0.43;0.43;;;;;;;31.72;28.26;98500.91;5093925;28;20024;-75
2021/07/03 06:35:33;;;;;;;0.00;0.00;;;;;;;31.61;28.41;98512.97;5093574;28;20067;-74
2021/07/03 06:37:58;;;;;;;0.00;0.00;;;;;;;31.52;28.20;98506.47;5093853;28;20035;-74
2021/07/03 06:40:24;;;;;;;0.10;0.10;;;;;;;31.32;28.62;98501.03;5075409;28;20031;-74
2021/07/03 06:42:49;;;;;;;0.00;0.00;;;;;;;31.12;29.17;98494.38;5093751;28;20479;-75
2021/07/03 06:45:15;;;;;;;0.15;0.15;;;;;;;30.96;29.03;98508.91;5093053;28;20031;-75
2021/07/03 06:47:40;;;;;;;0.10;0.10;;;;;;;30.79;28.83;98507.31;5093598;28;20024;-74
2021/07/03 06:50:07;;;;;;;0.00;0.00;;;;;;;30.62;29.74;98495.44;5093651;28;20107;-75
2021/07/03 06:52:32;;;;;;;0.03;0.03;;;;;;;30.50;29.47;98507.88;5093334;28;20016;-74
2021/07/03 06:54:58;;;;;;;0.10;0.10;;;;;;;30.41;29.46;98508.41;5093547;28;20514;-74
2021/07/03 06:57:23;;;;;;;0.00;0.00;;;;;;;30.13;29.15;98512.50;5093212;28;20708;-74
2021/07/03 06:59:48;;;;;;;0.20;0.20;;;;;;;29.88;29.79;98516.44;5093414;28;20031;-74
2021/07/03 07:02:14;;;;;;;0.00;0.00;;;;;;;29.79;30.06;98516.97;5093227;28;20073;-74
2021/07/03 07:04:39;;;;;;;0.00;0.00;;;;;;;29.73;29.88;98518.66;5093265;28;20034;-74
2021/07/03 07:07:05;;;;;;;0.00;0.00;;;;;;;29.59;30.29;98510.63;5093054;28;20024;-74
2021/07/03 07:09:30;;;;;;;0.05;0.05;;;;;;;29.58;30.71;98520.06;5093063;28;20036;-75
2021/07/03 07:11:57;;;;;;;0.00;0.00;;;;;;;29.60;30.99;98518.50;5093518;28;20445;-74
2021/07/03 07:14:23;;;;;;;0.00;0.00;;;;;;;29.67;31.19;98512.06;5092680;28;20085;-74
2021/07/03 07:16:49;;;;;;;0.43;0.43;;;;;;;29.46;30.22;98505.69;5093142;28;20032;-74
2021/07/03 07:19:14;;;;;;;0.00;0.00;;;;;;;29.31;30.70;98513.41;5092541;28;20020;-74
2021/07/03 07:21:40;;;;;;;0.98;0.22;;;;;;;29.21;31.03;98517.06;5092655;28;20452;-74
2021/07/03 07:24:05;;;;;;;0.10;0.10;;;;;;;29.14;30.52;98515.19;5092623;28;20028;-74
2021/07/03 07:26:32;;;;;;;0.20;0.20;;;;;;;29.07;31.15;98512.53;5092770;28;20055;-74
2021/07/03 07:28:58;;;;;;;0.17;0.17;;;;;;;29.08;31.25;98509.38;5092865;28;20020;-74
2021/07/03 07:31:24;;;;;;;0.00;0.00;;;;;;;29.06;30.42;98514.53;5092451;28;20412;-74
2021/07/03 07:33:50;;;;;;;0.00;0.00;;;;;;;29.04;30.65;98508.66;5093117;28;20101;-74
2021/07/03 07:36:15;;;;;;;0.00;0.00;;;;;;;29.07;30.53;98507.03;5092517;28;20047;-76
2021/07/03 07:38:41;;;;;;;1.50;0.15;;;;;;;29.02;31.52;98499.25;5074521;28;20032;-76
2021/07/03 07:41:07;;;;;;;0.00;0.00;;;;;;;28.85;31.54;98509.31;5092669;28;20020;-75
2021/07/03 07:43:33;;;;;;;0.00;0.00;;;;;;;28.71;31.25;98505.53;5092030;28;20055;-74
2021/07/03 07:45:58;;;;;;;0.52;0.45;;;;;;;28.63;31.32;98508.75;5092594;28;20032;-75
2021/07/03 07:48:27;;;;;;;0.10;0.10;;;;;;;28.46;31.90;98505.78;5092328;28;20028;-76
2021/07/03 07:50:56;;;;;;;0.10;0.10;;;;;;;28.37;32.12;98509.03;5092467;28;20475;-76
2021/07/03 07:53:21;;;;;;;0.00;0.00;;;;;;;28.35;32.78;98503.16;5092223;28;20470;-75
2021/07/03 07:55:47;;;;;;;0.10;0.10;;;;;;;28.27;32.29;98498.94;5091921;28;20115;-76
2021/07/03 07:58:12;;;;;;;0.17;0.17;;;;;;;28.20;31.87;98496.28;5091989;28;20467;-75
2021/07/03 08:00:37;;;;;;;0.00;0.00;;;;;;;28.21;32.33;98498.63;5092103;28;20028;-76
2021/07/03 08:03:03;;;;;;;0.00;0.00;;;;;;;28.15;31.51;98493.94;5091762;28;20044;-76
2021/07/03 08:05:29;;;;;;;0.10;0.10;;;;;;;28.21;31.81;98497.81;5091913;28;20110;-76
2021/07/03 08:07:54;;;;;;;0.10;0.10;;;;;;;28.28;31.79;98501.28;5092204;28;20024;-75
2021/07/03 08:10:20;;;;;;;0.05;0.05;;;;;;;28.29;31.52;98502.06;5091548;28;20020;-75
2021/07/03 08:12:46;;;;;;;0.00;0.00;;;;;;;28.23;31.69;98490.72;5090706;28;20031;-75
2021/07/03 08:15:14;;;;;;;0.00;0.00;;;;;;;28.18;32.39;98487.66;5092035;28;20107;-75
2021/07/03 08:17:43;;;;;;;0.00;0.00;;;;;;;28.17;31.57;98492.34;5091726;28;20085;-75
2021/07/03 08:20:17;;;;;;;0.08;0.08;;;;;;;28.13;30.80;98482.59;5091527;28;20406;-76
2021/07/03 08:22:44;;;;;;;0.00;0.00;;;;;;;28.10;30.62;98492.44;5091870;28;20035;-75
2021/07/03 08:25:10;;;;;;;0.00;0.00;;;;;;;28.07;29.59;98485.78;5091453;28;20055;-75
2021/07/03 08:27:35;;;;;;;0.10;0.10;;;;;;;28.02;30.08;98494.44;5091575;28;20472;-74
2021/07/03 08:30:01;;;;;;;0.10;0.10;;;;;;;27.96;30.18;98491.38;5091784;28;20085;-75
2021/07/03 08:32:26;;;;;;;0.00;0.00;;;;;;;27.91;31.00;98485.53;5091417;28;20165;-75
2021/07/03 08:34:52;;;;;;;0.00;0.00;;;;;;;27.87;31.00;98498.50;5091726;28;20110;-75
2021/07/03 08:37:17;;;;;;;0.00;0.00;;;;;;;27.97;31.18;98494.88;5091474;28;20044;-75
2021/07/03 08:39:43;;;;;;;0.00;0.00;;;;;;;28.04;31.27;98496.78;5091349;28;20028;-75
2021/07/03 08:42:09;;;;;;;0.00;0.00;;;;;;;28.02;31.42;98494.44;5091663;28;20075;-75
2021/07/03 08:44:35;;;;;;;0.00;0.00;;;;;;;28.00;31.63;98490.53;5090988;28;20431;-75
2021/07/03 08:47:01;;;;;;;0.17;0.17;;;;;;;27.98;31.32;98488.22;5091443;28;20103;-75
2021/07/03 08:49:26;;;;;;;0.10;0.10;;;;;;;27.99;31.87;98475.25;5091023;28;20028;-75
2021/07/03 08:51:53;;;;;;;0.05;0.05;;;;;;;28.05;31.41;98492.88;5091418;28;20391;-75
2021/07/03 08:54:19;;;;;;;0.00;0.00;;;;;;;28.09;31.38;98483.41;5091205;28;20039;-75
2021/07/03 08:56:47;;;;;;;0.63;0.30;;;;;;;28.13;31.48;98475.13;5091572;28;20094;-75
2021/07/03 08:59:22;;;;;;;;;;;;;;;28.19;31.33;98476.25;5091700;28;20166;-75
2021/07/03 09:01:53;;;;;;;0.20;0.20;;;;;;;28.23;31.46;98470.69;5091230;28;19974;-75
2021/07/03 09:04:31;;;;;;;0.00;0.00;;;;;;;28.28;30.98;98473.00;5091017;28;20039;-75
2021/07/03 09:06:56;;;;;;;0.13;0.13;;;;;;;28.36;31.40;98466.22;5091294;28;20028;-75
2021/07/03 09:09:25;;;;;;;0.00;0.00;;;;;;;28.45;31.44;98476.72;5091098;28;20036;-75
2021/07/03 09:11:53;;;;;;;0.10;0.10;;;;;;;28.55;31.21;98473.09;5091171;28;20415;-75
2021/07/03 09:14:27;;;;;;;0.00;0.00;;;;;;;28.62;30.52;98479.69;5091032;28;20036;-75
2021/07/03 09:16:57;;;;;;;0.13;0.13;;;;;;;28.65;30.87;98457.63;5090938;28;20506;-75
2021/07/03 09:19:30;;;;;;;0.00;0.00;;;;;;;28.72;29.88;98476.03;5090872;28;20114;-75
2021/07/03 09:21:56;;;;;;;0.00;0.00;;;;;;;28.65;29.69;98468.66;5090799;28;20046;-75
2021/07/03 09:24:22;;;;;;;0.00;0.00;;;;;;;28.56;29.85;98463.66;5090604;28;20066;-76
2021/07/03 09:27:03;;;;;;;0.10;0.10;;;;;;;28.45;29.46;98454.72;5091045;28;20062;-75
2021/07/03 09:29:29;;;;;;;0.10;0.10;;;;;;;28.41;29.57;98456.75;5090775;28;20085;-75
2021/07/03 09:32:05;;;;;;;0.10;0.10;;;;;;;28.36;29.79;98462.72;5090870;28;20028;-76
2021/07/03 09:34:31;;;;;;;0.00;0.00;;;;;;;28.26;29.50;98461.66;5090863;28;20115;-75
2021/07/03 09:37:04;;;;;;;0.00;0.00;;;;;;;28.19;30.00;98465.25;5090995;28;20032;-75
2021/07/03 09:39:29;;;;;;;0.00;0.00;;;;;;;28.18;30.33;98454.66;5090682;28;20020;-75
2021/07/03 09:41:55;;;;;;;0.10;0.10;;;;;;;28.24;30.80;98453.78;5090918;28;20031;-75
2021/07/03 09:44:20;;;;;;;0.00;0.00;;;;;;;28.37;30.39;98465.03;5090544;28;20403;-76
2021/07/03 09:46:51;;;;;;;0.00;0.00;;;;;;;28.52;30.29;98451.91;5090384;28;20496;-76
2021/07/03 09:49:18;;;;;;;0.00;0.00;;;;;;;28.64;31.13;98452.53;5090748;28;20028;-76
2021/07/03 09:51:46;;;;;;;0.00;0.00;;;;;;;28.67;28.22;98448.97;5090243;28;20020;-73
2021/07/03 09:54:13;;;;;;;0.10;0.10;;;;;;;28.71;28.75;98456.00;5090746;28;20036;-75
2021/07/03 09:56:40;;;;;;;;;;;;;;;28.84;28.33;98456.22;5090928;28;20032;-75
2021/07/03 09:59:06;;;;;;;0.00;0.00;;;;;;;28.94;27.70;98462.00;5090846;28;19908;-75
2021/07/03 10:01:31;;;;;;;0.30;0.30;;;;;;;28.91;28.28;98444.34;5090490;28;20039;-75
2021/07/03 10:04:00;;;;;;;0.00;0.00;;;;;;;29.09;29.44;98446.84;5090590;28;20028;-74
2021/07/03 10:06:36;;;;;;;0.10;0.10;;;;;;;29.11;29.27;98449.16;5090455;28;20035;-75
2021/07/03 10:09:05;;;;;;;0.35;0.10;;;;;;;29.20;29.78;98449.44;5090662;28;20400;-76
2021/07/03 10:11:36;;;;;;;0.08;0.08;;;;;;;29.27;29.03;98440.28;5090477;28;20028;-76
2021/07/03 10:14:04;;;;;;;0.00;0.00;;;;;;;29.27;28.92;98440.28;5090542;28;20028;-76
2021/07/03 10:16:30;;;;;;;0.00;0.00;;;;;;;29.27;28.39;98454.03;5090375;28;20067;-75
2021/07/03 10:19:10;;;;;;;0.15;0.15;;;;;;;29.32;28.47;98437.06;5090524;28;20028;-76
2021/07/03 10:21:36;;;;;;;0.00;0.00;;;;;;;29.26;28.43;98435.97;5093989;28;20043;-76
2021/07/03 10:24:02;;;;;;;0.00;0.00;;;;;;;29.19;29.05;98429.38;5094162;28;20028;-76
2021/07/03 10:26:38;;;;;;;0.00;0.00;;;;;;;29.13;28.65;98420.03;5093546;28;20044;-76
2021/07/03 10:29:17;;;;;;;0.00;0.00;;;;;;;29.11;29.27;98433.41;5094143;28;20089;-76
2021/07/03 10:31:44;;;;;;;0.00;0.00;;;;;;;28.97;28.79;98428.91;5094103;28;20486;-75
2021/07/03 10:34:10;;;;;;;0.00;0.00;;;;;;;28.92;28.54;98432.91;5094036;28;20115;-76
2021/07/03 10:36:36;;;;;;;0.00;0.00;;;;;;;28.83;29.88;98424.41;5093744;28;20552;-76
2021/07/03 10:39:02;;;;;;;0.10;0.10;;;;;;;28.83;29.42;98418.13;5092663;28;20024;-76
2021/07/03 10:41:30;;;;;;;0.00;0.00;;;;;;;28.77;30.23;98417.78;5093947;28;20590;-76
2021/07/03 10:44:06;;;;;;;0.00;0.00;;;;;;;28.74;30.19;98418.63;5093727;28;20031;-76
2021/07/03 10:46:34;;;;;;;0.20;0.20;;;;;;;28.65;30.18;98421.09;5093535;28;20030;-76
2021/07/03 10:49:06;;;;;;;0.25;0.25;;;;;;;28.72;30.96;98423.75;5093725;28;20020;-76
2021/07/03 10:51:47;;;;;;;0.20;0.20;;;;;;;28.74;30.88;98429.66;5085191;28;20523;-75
2021/07/03 10:54:20;;;;;;;0.00;0.00;;;;;;;28.68;30.00;98412.00;5093659;28;20110;-75
2021/07/03 10:56:50;;;;;;;0.10;0.10;;;;;;;28.72;30.42;98419.06;5093315;28;20491;-76
2021/07/03 10:59:18;;;;;;;0.03;0.03;;;;;;;28.75;30.96;98414.69;5093544;28;20107;-75
2021/07/03 11:01:46;;;;;;;0.00;0.00;;;;;;;28.84;30.32;98417.69;5093301;28;20032;-75
2021/07/03 11:04:16;;;;;;;;;;;;;;;28.81;30.13;98421.28;5075650;28;20024;-75
2021/07/03 11:06:53;;;;;;;0.10;0.10;;;;;;;28.88;30.19;98417.66;5093164;28;19977;-75
2021/07/03 11:09:25;;;;;;;0.00;0.00;;;;;;;28.97;30.01;98409.66;5093430;28;20032;-75
2021/07/03 11:11:51;;;;;;;0.25;0.25;;;;;;;29.04;29.81;98406.00;5093228;28;20032;-75
2021/07/03 11:14:20;;;;;;;0.00;0.00;;;;;;;29.07;29.59;98410.69;5093194;28;20032;-75
2021/07/03 11:16:50;;;;;;;0.00;0.00;;;;;;;29.10;30.04;98409.88;5092962;28;20031;-75
2021/07/03 11:19:29;;;;;;;0.00;0.00;;;;;;;28.97;29.31;98403.38;5093152;28;20471;-75
2021/07/03 11:22:07;;;;;;;0.00;0.00;;;;;;;28.87;29.83;98414.13;5093062;28;20042;-75
2021/07/03 11:24:39;;;;;;;;;;;;;;;28.84;29.75;98414.19;5093139;28;20115;-75
2021/07/03 11:27:05;;;;;;;0.00;0.00;;;;;;;28.83;29.39;98398.84;5093144;28;19912;-74
2021/07/03 11:29:30;;;;;;;0.08;0.08;;;;;;;28.80;29.55;98400.47;5092740;28;20082;-75
2021/07/03 11:32:07;;;;;;;0.08;0.08;;;;;;;28.88;29.77;98404.69;5091664;28;20024;-74